Time;durP1;ratioP1;P1;durP2;ratioP2;P2;SDS_P1;SDS_P2;PMS_P1;PMS_P2;Temp;Humidity;BMP_temperature;BMP_pressure;BME280_temperature;BME280_humidity;BME280_pressure;Samples;Min_cycle;Max_cycle;Signal;HPM_P1;HPM_P2
2021/08/30 00:04:49;;;;;;;0.40;0.20;;;21.50;99.90;;;;;;20539394;28;20298;-79
2021/08/30 00:14:52;;;;;;;0.83;0.33;;;21.40;99.90;;;;;;20539716;28;20814;-76
2021/08/30 00:24:58;;;;;;;1.23;0.50;;;21.20;99.90;;;;;;20580444;28;21075;-75
2021/08/30 00:35:01;;;;;;;0.27;0.27;;;21.20;99.90;;;;;;20624401;28;20700;-77
2021/08/30 00:45:09;;;;;;;0.30;0.30;;;21.20;99.90;;;;;;20627767;28;20612;-75
2021/08/30 00:55:14;;;;;;;0.97;0.50;;;21.10;99.90;;;;;;20626427;28;20219;-78
2021/08/30 01:05:20;;;;;;;2.83;0.73;;;20.90;99.90;;;;;;20628447;28;20199;-79
2021/08/30 01:15:30;;;;;;;0.40;0.40;;;20.90;99.90;;;;;;20625547;28;20248;-80
2021/08/30 01:25:37;;;;;;;0.20;0.10;;;20.90;99.90;;;;;;20623380;28;20223;-79
2021/08/30 01:35:42;;;;;;;0.50;0.50;;;20.80;99.90;;;;;;20587211;28;20306;-79
2021/08/30 01:45:47;;;;;;;0.40;0.33;;;20.80;99.90;;;;;;20532516;28;20881;-78
2021/08/30 01:55:56;;;;;;;0.67;0.43;;;20.90;99.90;;;;;;20540050;28;20231;-76
2021/08/30 02:06:02;;;;;;;0.23;0.23;;;21.00;99.90;;;;;;20540677;28;20196;-77
2021/08/30 02:16:07;;;;;;;2.63;0.57;;;21.10;99.90;;;;;;20538047;28;20238;-78
2021/08/30 02:26:15;;;;;;;0.50;0.50;;;21.10;99.90;;;;;;20540327;28;20379;-77
2021/08/30 02:36:22;;;;;;;0.30;0.23;;;21.00;99.90;;;;;;20538558;28;20685;-76
2021/08/30 02:46:28;;;;;;;0.40;0.20;;;21.00;99.90;;;;;;20535983;28;20645;-77
2021/08/30 02:56:34;;;;;;;1.30;0.37;;;21.00;99.90;;;;;;20537681;28;20224;-80
2021/08/30 03:06:39;;;;;;;1.53;0.83;;;20.80;99.90;;;;;;20518292;28;20192;-82
2021/08/30 03:16:45;;;;;;;0.40;0.27;;;20.80;99.90;;;;;;20536669;28;20768;-87
2021/08/30 03:26:50;;;;;;;0.67;0.50;;;20.70;99.90;;;;;;20535922;28;20240;-80
2021/08/30 03:36:56;;;;;;;0.40;0.30;;;20.60;99.90;;;;;;20533788;28;20228;-80
2021/08/30 03:47:01;;;;;;;0.20;0.10;;;20.50;99.90;;;;;;20547168;28;20207;-78
2021/08/30 03:57:06;;;;;;;1.03;0.83;;;20.60;99.90;;;;;;20532691;28;20271;-75
2021/08/30 04:07:11;;;;;;;0.40;0.40;;;20.70;99.90;;;;;;20549338;28;20214;-79
2021/08/30 04:17:16;;;;;;;0.60;0.60;;;20.70;99.90;;;;;;20545327;28;20705;-75
2021/08/30 04:27:20;;;;;;;0.87;0.60;;;20.80;99.90;;;;;;20597554;28;20251;-77
2021/08/30 04:37:25;;;;;;;5.60;0.90;;;20.80;99.90;;;;;;20624921;28;20227;-76
2021/08/30 04:47:29;;;;;;;0.57;0.50;;;20.90;99.90;;;;;;20625045;28;20199;-77
2021/08/30 04:57:34;;;;;;;2.80;1.00;;;21.00;99.90;;;;;;20624585;28;20219;-77
2021/08/30 05:07:37;;;;;;;0.50;0.50;;;21.20;99.90;;;;;;20615769;28;20294;-77
2021/08/30 05:17:43;;;;;;;0.20;0.20;;;21.30;99.90;;;;;;20614452;28;20232;-77
2021/08/30 05:27:48;;;;;;;1.17;0.70;;;21.20;99.90;;;;;;20617714;28;20269;-77
2021/08/30 05:37:53;;;;;;;1.63;0.87;;;21.50;99.90;;;;;;20616564;28;20238;-79
2021/08/30 05:47:57;;;;;;;0.60;0.60;;;21.50;99.90;;;;;;20619288;28;20564;-80
2021/08/30 05:58:02;;;;;;;2.07;0.97;;;21.80;99.90;;;;;;20618066;28;20233;-78
2021/08/30 06:08:05;;;;;;;2.40;1.30;;;22.20;99.90;;;;;;20618814;28;20196;-77
2021/08/30 06:18:10;;;;;;;0.50;0.50;;;22.70;99.90;;;;;;20619381;28;20220;-75
2021/08/30 06:28:14;;;;;;;1.40;0.80;;;23.00;99.90;;;;;;20561757;28;20235;-74
2021/08/30 06:38:20;;;;;;;0.70;0.70;;;23.20;99.90;;;;;;20530487;28;20230;-82
2021/08/30 06:48:24;;;;;;;1.17;0.80;;;23.30;99.90;;;;;;20535139;28;20192;-77
2021/08/30 06:58:29;;;;;;;0.20;0.10;;;23.40;99.90;;;;;;20521134;28;20228;-82
2021/08/30 07:08:33;;;;;;;0.63;0.50;;;23.20;99.90;;;;;;20537617;28;20276;-79
2021/08/30 07:18:38;;;;;;;0.70;0.60;;;23.20;99.90;;;;;;20536356;28;20235;-85
2021/08/30 07:28:42;;;;;;;0.20;0.10;;;23.60;99.90;;;;;;20617976;28;20219;-83
2021/08/30 07:38:47;;;;;;;0.93;0.65;;;23.50;99.90;;;;;;20630737;28;20779;-80
2021/08/30 07:48:51;;;;;;;0.77;0.40;;;23.70;99.90;;;;;;20627571;28;20290;-84
2021/08/30 07:58:56;;;;;;;1.35;0.95;;;24.10;99.90;;;;;;20628470;28;20632;-82
2021/08/30 08:09:00;;;;;;;2.25;0.35;;;23.90;99.90;;;;;;20615891;28;20195;-86
2021/08/30 08:19:06;;;;;;;0.40;0.40;;;23.80;99.90;;;;;;20624132;28;20227;-86
2021/08/30 08:29:10;;;;;;;0.73;0.35;;;24.20;99.90;;;;;;20623110;28;20685;-79
2021/08/30 08:39:15;;;;;;;0.68;0.50;;;24.10;99.90;;;;;;20624138;28;20234;-81
2021/08/30 08:49:20;;;;;;;0.28;0.22;;;24.60;99.90;;;;;;20568500;28;20208;-82
2021/08/30 08:59:26;;;;;;;2.53;0.90;;;24.70;99.90;;;;;;20625655;28;20227;-78
2021/08/30 09:09:48;;;;;;;0.38;0.38;;;24.60;99.90;;;;;;20577325;28;20257;-68
2021/08/30 09:19:55;;;;;;;0.50;0.50;;;25.00;99.90;;;;;;20621137;28;20223;-75
2021/08/30 09:30:03;;;;;;;0.35;0.32;;;24.80;99.90;;;;;;20587953;28;20238;-79
2021/08/30 09:40:11;;;;;;;0.32;0.25;;;24.50;99.90;;;;;;20595679;28;20584;-80
2021/08/30 09:50:15;;;;;;;0.40;0.40;;;25.20;99.90;;;;;;20616188;28;20191;-81
2021/08/30 10:00:21;;;;;;;0.52;0.52;;;25.20;99.90;;;;;;20631148;28;20706;-78
2021/08/30 10:10:25;;;;;;;0.32;0.22;;;25.10;99.90;;;;;;20604135;28;20211;-79
2021/08/30 10:20:34;;;;;;;16.45;0.82;;;25.30;99.90;;;;;;20617075;28;20777;-82
2021/08/30 10:30:41;;;;;;;0.35;0.25;;;25.70;99.90;;;;;;20613341;28;20223;-85
2021/08/30 10:40:51;;;;;;;0.25;0.20;;;26.40;99.90;;;;;;20611735;28;20711;-81
2021/08/30 10:50:54;;;;;;;0.73;0.43;;;26.80;99.90;;;;;;20606904;28;20656;-76
2021/08/30 11:01:10;;;;;;;3.00;1.05;;;27.30;99.90;;;;;;20604112;28;20362;-86
2021/08/30 11:11:16;;;;;;;0.80;0.60;;;27.20;99.90;;;;;;20610153;28;20211;-80
2021/08/30 11:21:46;;;;;;;0.50;0.50;;;26.80;99.90;;;;;;20604501;28;20238;-78
2021/08/30 11:31:51;;;;;;;0.63;0.50;;;28.80;99.90;;;;;;20606707;28;20756;-84
2021/08/30 11:41:59;;;;;;;2.25;0.65;;;26.80;99.90;;;;;;20611950;28;20226;-81
2021/08/30 11:52:03;;;;;;;3.60;0.60;;;25.90;99.90;;;;;;20613651;28;20210;-83
2021/08/30 12:02:10;;;;;;;1.05;0.90;;;25.40;99.90;;;;;;20620850;28;20267;-82
2021/08/30 12:12:19;;;;;;;0.55;0.55;;;25.20;99.90;;;;;;20628139;28;20227;-80
2021/08/30 12:22:27;;;;;;;0.45;0.35;;;25.70;99.90;;;;;;20614017;28;20454;-75
2021/08/30 12:32:46;;;;;;;1.95;0.70;;;25.90;99.90;;;;;;20621183;28;20211;-74
2021/08/30 12:42:54;;;;;;;14.45;0.73;;;25.60;99.90;;;;;;20617331;28;20214;-85
2021/08/30 12:52:58;;;;;;;0.75;0.50;;;25.70;99.90;;;;;;20618065;28;20486;-80
2021/08/30 13:03:03;;;;;;;3.42;1.35;;;25.20;99.90;;;;;;20617199;28;20294;-67
2021/08/30 13:13:08;;;;;;;1.73;0.57;;;24.80;99.90;;;;;;20616450;28;20223;-67
2021/08/30 13:23:13;;;;;;;0.30;0.05;;;24.70;99.90;;;;;;20616476;28;20227;-66
2021/08/30 13:33:17;;;;;;;0.43;0.30;;;24.40;99.90;;;;;;20614133;28;20227;-67
2021/08/30 13:43:22;;;;;;;2.90;0.73;;;24.50;99.90;;;;;;20609821;28;20525;-67
2021/08/30 13:53:26;;;;;;;0.30;0.30;;;24.50;99.90;;;;;;20611970;28;20223;-64
2021/08/30 14:03:31;;;;;;;1.10;0.93;;;24.40;99.90;;;;;;20609687;28;20661;-66
2021/08/30 14:13:34;;;;;;;1.65;0.65;;;24.50;99.90;;;;;;20621818;28;20254;-67
2021/08/30 14:23:39;;;;;;;0.85;0.77;;;24.40;99.90;;;;;;20630564;28;20422;-66
2021/08/30 14:33:43;;;;;;;0.88;0.50;;;24.30;99.90;;;;;;20610127;28;20573;-65
2021/08/30 14:43:52;;;;;;;2.40;0.40;;;23.80;99.90;;;;;;20625085;28;20565;-66
2021/08/30 14:53:56;;;;;;;8.50;0.90;;;23.50;99.90;;;;;;20642272;28;20226;-67
2021/08/30 15:04:01;;;;;;;1.35;0.60;;;23.70;99.90;;;;;;20609978;28;20239;-66
2021/08/30 15:14:05;;;;;;;0.95;0.75;;;23.80;99.90;;;;;;20607437;28;20591;-67
2021/08/30 15:24:10;;;;;;;0.90;0.47;;;24.00;99.90;;;;;;20609516;28;20337;-65
2021/08/30 15:34:14;;;;;;;0.47;0.28;;;25.10;99.90;;;;;;20611319;28;20322;-65
2021/08/30 15:44:19;;;;;;;0.70;0.50;;;25.10;99.90;;;;;;20638648;28;20385;-68
2021/08/30 15:54:24;;;;;;;1.05;0.57;;;25.60;99.90;;;;;;20622382;28;20219;-68
2021/08/30 16:04:29;;;;;;;0.98;0.55;;;26.10;99.90;;;;;;20623140;28;20234;-68
2021/08/30 16:14:36;;;;;;;2.65;1.60;;;25.80;99.90;;;;;;20622092;28;20219;-67
2021/08/30 16:24:40;;;;;;;2.95;1.17;;;25.40;99.90;;;;;;20639854;28;20226;-67
2021/08/30 16:34:44;;;;;;;0.68;0.50;;;25.50;99.90;;;;;;20647464;28;20787;-67
2021/08/30 16:44:49;;;;;;;2.40;0.95;;;25.70;99.90;;;;;;20601603;28;20215;-68
2021/08/30 16:54:53;;;;;;;0.68;0.68;;;25.60;99.90;;;;;;20606475;28;20231;-66
2021/08/30 17:04:58;;;;;;;0.38;0.38;;;25.00;99.90;;;;;;20634033;28;20549;-66
2021/08/30 17:15:02;;;;;;;0.45;0.38;;;25.10;99.90;;;;;;20654514;28;20767;-67
2021/08/30 17:25:08;;;;;;;4.22;0.95;;;25.20;99.90;;;;;;20619806;28;20587;-67
2021/08/30 17:35:11;;;;;;;0.20;0.10;;;25.00;99.90;;;;;;20617152;28;20778;-68
2021/08/30 17:45:17;;;;;;;1.55;0.57;;;24.80;99.90;;;;;;20614021;28;20683;-68
2021/08/30 17:55:21;;;;;;;0.60;0.28;;;24.60;99.90;;;;;;20617349;28;20226;-68
2021/08/30 18:05:26;;;;;;;1.23;0.80;;;24.50;99.90;;;;;;20612511;28;20581;-68
2021/08/30 18:15:31;;;;;;;0.43;0.40;;;24.30;99.90;;;;;;20608023;28;20389;-67
2021/08/30 18:25:39;;;;;;;0.57;0.50;;;24.20;99.90;;;;;;20608895;28;20242;-66
2021/08/30 18:35:44;;;;;;;0.98;0.75;;;24.10;99.90;;;;;;20591864;28;20223;-67
2021/08/30 18:45:49;;;;;;;1.80;0.82;;;23.90;99.90;;;;;;20577910;28;20557;-67
2021/08/30 18:55:52;;;;;;;1.80;0.85;;;23.70;99.90;;;;;;20606364;28;20223;-68
2021/08/30 19:05:57;;;;;;;0.98;0.93;;;23.70;99.90;;;;;;20608490;28;20204;-67
2021/08/30 19:16:01;;;;;;;0.57;0.57;;;23.40;99.90;;;;;;20679429;28;20234;-68
2021/08/30 19:26:07;;;;;;;0.63;0.53;;;23.10;99.90;;;;;;20689756;28;20361;-69
2021/08/30 19:36:13;;;;;;;0.67;0.67;;;22.70;99.90;;;;;;20641464;28;20681;-69
2021/08/30 19:46:18;;;;;;;0.47;0.47;;;22.60;99.90;;;;;;20608906;28;20219;-69
2021/08/30 19:56:22;;;;;;;3.43;0.60;;;22.40;99.90;;;;;;20619315;28;20624;-69
2021/08/30 20:06:27;;;;;;;2.37;1.10;;;22.40;99.90;;;;;;20682957;28;20285;-67
2021/08/30 20:16:33;;;;;;;2.93;0.40;;;22.40;99.90;;;;;;20604446;28;20284;-68
2021/08/30 20:26:38;;;;;;;0.40;0.20;;;22.60;99.90;;;;;;20619008;28;20222;-68
2021/08/30 20:36:42;;;;;;;2.90;1.13;;;22.70;99.90;;;;;;20629228;28;20231;-68
2021/08/30 20:46:47;;;;;;;0.57;0.50;;;22.90;99.90;;;;;;20614496;28;20198;-68
2021/08/30 20:56:51;;;;;;;0.60;0.60;;;22.70;99.90;;;;;;20618326;28;20414;-68
2021/08/30 21:06:56;;;;;;;0.73;0.57;;;22.40;99.90;;;;;;20688075;28;20225;-68
2021/08/30 21:16:59;;;;;;;0.40;0.27;;;22.20;99.90;;;;;;20700863;28;20230;-69
2021/08/30 21:27:04;;;;;;;0.20;0.07;;;22.00;99.90;;;;;;20640061;28;20410;-65
2021/08/30 21:37:08;;;;;;;0.67;0.40;;;22.00;99.90;;;;;;20637086;28;20230;-69
2021/08/30 21:47:13;;;;;;;5.93;0.97;;;21.90;99.90;;;;;;20623174;28;20250;-71
2021/08/30 21:57:17;;;;;;;0.40;0.40;;;21.80;99.90;;;;;;20637852;28;20723;-73
2021/08/30 22:07:22;;;;;;;0.30;0.30;;;21.70;99.90;;;;;;20656608;28;20195;-71
2021/08/30 22:17:26;;;;;;;0.50;0.50;;;21.50;99.90;;;;;;20654887;28;20227;-71
2021/08/30 22:27:31;;;;;;;1.23;0.40;;;21.40;99.90;;;;;;20672880;28;20238;-69
2021/08/30 22:37:34;;;;;;;0.50;0.40;;;21.30;99.90;;;;;;20663995;28;20263;-69
2021/08/30 22:47:40;;;;;;;0.60;0.57;;;21.40;99.90;;;;;;20694261;28;21052;-70
2021/08/30 22:57:43;;;;;;;0.40;0.40;;;21.40;99.90;;;;;;20661483;28;20253;-69
2021/08/30 23:07:48;;;;;;;0.93;0.50;;;21.50;99.90;;;;;;20614912;28;20505;-67
2021/08/30 23:17:52;;;;;;;0.40;0.40;;;21.80;99.90;;;;;;20613056;28;20231;-68
2021/08/30 23:27:57;;;;;;;0.30;0.30;;;21.80;99.90;;;;;;20615514;28;20227;-69
2021/08/30 23:38:01;;;;;;;1.00;0.53;;;21.60;99.90;;;;;;20610246;28;20223;-70
2021/08/30 23:48:07;;;;;;;0.40;0.37;;;21.60;99.90;;;;;;20612258;28;20258;-70
2021/08/30 23:58:11;;;;;;;2.90;0.70;;;21.50;99.90;;;;;;20623843;28;20223;-70
